Leesville, Ohio
Current Conditions -  °F | °C
As of 1:53 AM on Thursday 23 Oct 2014 (Local Time) from KPHD Reporting Station
Overcast Overcast  
Wind Chill: 46°   Ceiling: 4000
Heat Index: 46°   Visibility: 7mi
Dew Point: 42°   Wind: 3mph
Humidity: 86%   Direction: 330°NNW
Pressure: 30.19"   Gusts: NA
Location:  40.45°N, 81.21°W
Report Text: KPHD 230553Z AUTO 33003KT 7SM OVC040 08/06 A3019 RMK AO2 SLP227 T00780056 10094 20056 58012
Loading
Personal Weather Stations






























Interactive Weather Map
Tropical Storm Tracking
New forecast layout! Learn more

10-Day Weather Forecast

Advertisements
Track Severe Weather on mobile